LiveATC.Net - Listen to live air traffic control over the Internet!


ICAO: CYPK  IATA: YPK   Airport: Pitt Meadows Airport
City: Pitt Meadows   State/Province: British Columbia
Country: Canada   Continent: North America
CYVR METAR Weather: CYVR 191900Z 27025KT 30SM FEW050 FEW220 18/07 A3012 RMK CU1CS1 CS TR SLP200 DENSITY ALT 200FT
CYPK Flight Activity (FlightAware)
CYPK Webcam:  (Airport Webcams) 

CYPK Tower
Feed Status: UP   Listeners: 4
Listen in your browser - HTML5 player (in browser, HTML5)
Click here to listen with your own player (launches your MP3 player)
CYPK Tower Audio Archives
FacilityFrequency
Pitt Meadows Tower126.300

NOTICE

Unauthorized use prohibited. See LiveATC.net Terms of Service


Find LiveATC Audio Streams


Airport/ARTCC Code

Frequency Search
(e.g., 124.400, 128.75)
Site-wide search
 


Browse LiveATC Feeds
Top 50 LiveATC Feeds
LiveATC Feed Map
Bad Weather Areas

LiveATC FAQ
Offer LiveATC feed
Contact LiveATC.net
Press Inquiries

LiveATC on iPhone
LiveATC on Android

Windows Phone
Windows 8/10

LiveATC Mobile
(Mobile browser)

ATC Audio Archives
Interesting Recordings

LiveATC Forums


Home Page
About LiveATC.net
Make a Donation
Terms of Use
Privacy Policy

Canadian Air Freqs

AIRMETs/SIGMETs

FAA Airport Status
Nat'l Airspace Status
Arrival Demand Charts


Server Software By:
Icecast.org
Liquidsoap